createdAt,value
2022-11-24T00:02:44.195Z,98334.59
2022-11-24T00:05:30.806Z,98315.72
2022-11-24T00:08:18.285Z,98302.00
2022-11-24T00:11:10.131Z,98343.19
2022-11-24T00:13:57.662Z,98349.19
2022-11-24T00:16:44.067Z,98324.31
2022-11-24T00:19:30.630Z,98323.47
2022-11-24T00:22:16.895Z,98346.63
2022-11-24T00:25:03.591Z,98342.38
2022-11-24T00:27:50.285Z,98350.94
2022-11-24T00:30:36.631Z,98344.06
2022-11-24T00:33:23.278Z,98334.59
2022-11-24T00:36:09.722Z,98327.75
2022-11-24T00:38:58.085Z,98338.03
2022-11-24T00:41:44.416Z,98360.34
2022-11-24T00:44:31.092Z,98333.75
2022-11-24T00:47:17.903Z,98355.22
2022-11-24T00:50:04.907Z,98360.34
2022-11-24T00:52:51.343Z,98337.22
2022-11-24T00:55:37.689Z,98378.38
2022-11-24T00:58:25.076Z,98342.34
2022-11-24T01:01:15.027Z,98376.66
2022-11-24T01:04:02.054Z,98368.97
2022-11-24T01:06:48.653Z,98381.84
2022-11-24T01:09:35.381Z,98356.94
2022-11-24T01:12:21.476Z,98368.94
2022-11-24T01:15:09.060Z,98383.53
2022-11-24T01:17:56.581Z,98394.69
2022-11-24T01:20:42.847Z,98397.25
2022-11-24T01:23:29.192Z,98409.28
2022-11-24T01:26:18.083Z,98410.94
2022-11-24T01:29:05.023Z,98388.63
2022-11-24T01:31:51.733Z,98412.66
2022-11-24T01:34:38.020Z,98381.78
2022-11-24T01:37:24.488Z,98413.50
2022-11-24T01:40:11.315Z,98410.94
2022-11-24T01:42:57.747Z,98398.03
2022-11-24T01:45:45.150Z,98426.38
2022-11-24T01:48:38.056Z,98413.50
2022-11-24T01:51:28.491Z,98433.28
2022-11-24T01:54:20.472Z,98416.09
2022-11-24T01:57:22.481Z,98429.88
2022-11-24T02:00:11.698Z,98430.72
2022-11-24T02:03:00.966Z,98426.44
2022-11-24T02:06:22.954Z,98414.44
2022-11-24T02:09:30.688Z,98441.03
2022-11-24T02:12:17.360Z,98445.31
2022-11-24T02:15:04.288Z,98437.59
2022-11-24T02:17:50.662Z,98451.31
2022-11-24T02:20:38.037Z,98445.28
2022-11-24T02:23:44.655Z,98443.56
2022-11-24T02:26:38.854Z,98446.19
2022-11-24T02:29:25.533Z,98421.22
2022-11-24T02:32:12.262Z,98374.81
2022-11-24T02:35:05.685Z,98441.78
2022-11-24T02:37:52.140Z,98441.78
2022-11-24T02:40:39.972Z,98448.66
2022-11-24T02:43:30.488Z,98445.19
2022-11-24T02:46:17.200Z,98426.28
2022-11-24T02:49:03.673Z,98406.50
2022-11-24T02:51:49.843Z,98429.59
2022-11-24T02:54:36.443Z,98457.84
2022-11-24T02:57:23.424Z,98440.75
2022-11-24T03:00:10.557Z,98466.50
2022-11-24T03:02:57.083Z,98433.03
2022-11-24T03:05:43.694Z,98469.97
2022-11-24T03:08:30.130Z,98463.09
2022-11-24T03:11:16.592Z,98476.81
2022-11-24T03:14:02.777Z,98443.28
2022-11-24T03:16:49.392Z,98467.25
2022-11-24T03:19:35.859Z,98455.06
2022-11-24T03:22:22.201Z,98474.72
2022-11-24T03:25:08.884Z,98477.22
2022-11-24T03:27:58.046Z,98461.66
2022-11-24T03:30:44.415Z,98478.91
2022-11-24T03:33:31.137Z,98490.13
2022-11-24T03:36:18.135Z,98486.69
2022-11-24T03:39:04.524Z,98497.94
2022-11-24T03:41:53.839Z,98498.88
2022-11-24T03:44:40.277Z,98493.75
2022-11-24T03:47:26.648Z,98479.25
2022-11-24T03:50:12.797Z,98478.34
2022-11-24T03:52:59.015Z,98474.97
2022-11-24T03:55:45.229Z,98492.22
2022-11-24T03:58:31.721Z,98503.38
2022-11-24T04:01:18.412Z,98510.22
2022-11-24T04:04:05.201Z,98497.28
2022-11-24T04:06:51.813Z,98486.09
2022-11-24T04:09:38.304Z,98504.97
2022-11-24T04:12:43.649Z,98511.91
2022-11-24T04:15:29.807Z,98517.91
2022-11-24T04:18:16.165Z,98516.16
2022-11-24T04:21:02.842Z,98497.25
2022-11-24T04:23:49.181Z,98513.66
2022-11-24T04:26:36.437Z,98498.25
2022-11-24T04:29:23.112Z,98507.66
2022-11-24T04:32:09.307Z,98503.38
2022-11-24T04:34:55.568Z,98515.47
2022-11-24T04:37:41.841Z,98504.34
2022-11-24T04:40:27.970Z,98513.00
2022-11-24T04:43:14.265Z,98503.50
2022-11-24T04:46:01.583Z,98522.38
2022-11-24T04:48:47.730Z,98516.41
2022-11-24T04:51:34.233Z,98521.59
2022-11-24T04:54:20.299Z,98501.78
2022-11-24T04:57:06.776Z,98496.63
2022-11-24T04:59:54.039Z,98529.28
2022-11-24T05:02:40.266Z,98544.69
2022-11-24T05:05:26.520Z,98527.59
2022-11-24T05:08:13.094Z,98558.47
2022-11-24T05:11:04.518Z,98536.03
2022-11-24T05:13:52.960Z,98558.38
2022-11-24T05:16:39.326Z,98544.56
2022-11-24T05:19:29.846Z,98540.22
2022-11-24T05:22:18.684Z,98501.47
2022-11-24T05:25:05.397Z,98565.13
2022-11-24T05:27:51.787Z,98534.16
2022-11-24T05:30:39.449Z,98561.56
2022-11-24T05:33:28.460Z,98538.34
2022-11-24T05:36:33.315Z,98536.59
2022-11-24T05:39:20.473Z,98507.19
2022-11-24T05:42:26.697Z,98555.28
2022-11-24T05:45:15.501Z,98549.22
2022-11-24T05:48:07.550Z,98551.78
2022-11-24T05:50:58.514Z,98545.78
2022-11-24T05:53:45.209Z,98547.47
2022-11-24T05:56:31.447Z,98541.53
2022-11-24T05:59:17.559Z,98559.72
2022-11-24T06:02:04.535Z,98561.34
2022-11-24T06:04:50.793Z,98535.63
2022-11-24T06:07:36.966Z,98553.63
2022-11-24T06:10:26.486Z,98564.00
2022-11-24T06:13:13.224Z,98559.75
2022-11-24T06:15:59.762Z,98567.38
2022-11-24T06:18:45.987Z,98561.31
2022-11-24T06:21:32.372Z,98574.28
2022-11-24T06:24:18.740Z,98549.41
2022-11-24T06:27:04.834Z,98566.53
2022-11-24T06:29:51.264Z,98592.38
2022-11-24T06:32:38.865Z,98604.50
2022-11-24T06:35:25.211Z,98583.84
2022-11-24T06:38:11.431Z,98607.19
2022-11-24T06:41:01.457Z,98580.47
2022-11-24T06:43:47.973Z,98622.50
2022-11-24T06:46:34.319Z,98616.47
2022-11-24T06:49:20.641Z,98627.72
2022-11-24T06:52:07.303Z,98601.97
2022-11-24T06:54:53.863Z,98611.44
2022-11-24T06:57:40.175Z,98651.09
2022-11-24T07:00:29.208Z,98649.31
2022-11-24T07:03:16.878Z,98650.22
2022-11-24T07:06:03.216Z,98651.97
2022-11-24T07:08:50.620Z,98633.09
2022-11-24T07:11:37.662Z,98654.63
2022-11-24T07:14:23.945Z,98663.19
2022-11-24T07:17:10.296Z,98660.59
2022-11-24T07:19:56.564Z,98659.75
2022-11-24T07:22:42.741Z,98669.19
2022-11-24T07:25:29.132Z,98674.41
2022-11-24T07:28:15.364Z,98685.59
2022-11-24T07:31:09.473Z,98703.69
2022-11-24T07:33:55.944Z,98689.94
2022-11-24T07:36:42.810Z,98683.91
2022-11-24T07:39:29.624Z,98664.91
2022-11-24T07:42:15.834Z,98697.66
2022-11-24T07:45:02.114Z,98713.13
2022-11-24T07:47:48.449Z,98664.91
2022-11-24T07:50:34.692Z,98676.09
2022-11-24T07:53:20.951Z,98667.47
2022-11-24T07:56:08.009Z,98699.28
2022-11-24T07:58:54.360Z,98667.44
2022-11-24T08:01:40.897Z,98643.34
2022-11-24T08:04:27.449Z,98670.88
2022-11-24T08:07:13.905Z,98689.78
2022-11-24T08:10:00.548Z,98715.59
2022-11-24T08:12:46.712Z,98713.03
2022-11-24T08:15:33.154Z,98713.88
2022-11-24T08:18:19.213Z,98688.91
2022-11-24T08:21:06.520Z,98717.38
2022-11-24T08:23:56.856Z,98707.06
2022-11-24T08:26:43.285Z,98692.44
2022-11-24T08:29:30.840Z,98738.91
2022-11-24T08:32:21.920Z,98723.44
2022-11-24T08:35:14.088Z,98707.06
2022-11-24T08:38:04.758Z,98730.31
2022-11-24T08:40:51.536Z,98740.72
2022-11-24T08:43:38.575Z,98737.25
2022-11-24T08:46:25.197Z,98730.34
2022-11-24T08:49:15.025Z,98744.13
2022-11-24T08:52:01.569Z,98757.03
2022-11-24T08:54:47.953Z,98774.22
2022-11-24T08:57:34.164Z,98773.41
2022-11-24T09:00:23.322Z,98752.81
2022-11-24T09:03:11.963Z,98774.34
2022-11-24T09:05:58.210Z,98761.44
2022-11-24T09:08:44.330Z,98733.94
2022-11-24T09:11:30.937Z,98785.63
2022-11-24T09:14:17.307Z,98774.47
2022-11-24T09:17:03.858Z,98784.00
2022-11-24T09:19:50.107Z,98758.16
2022-11-24T09:22:38.086Z,98790.03
2022-11-24T09:25:24.509Z,98790.91
2022-11-24T09:28:10.654Z,98767.66
2022-11-24T09:31:04.520Z,98813.31
2022-11-24T09:33:52.292Z,98802.94
2022-11-24T09:36:38.627Z,98822.78
2022-11-24T09:39:24.877Z,98806.41
2022-11-24T09:42:29.632Z,98832.22
2022-11-24T09:45:57.457Z,98838.25
2022-11-24T09:48:46.565Z,98838.22
2022-11-24T09:51:33.884Z,98821.88
2022-11-24T09:54:25.337Z,98848.56
2022-11-24T09:57:14.278Z,98854.63
2022-11-24T10:00:06.908Z,98848.56
2022-11-24T10:02:58.254Z,98828.78
2022-11-24T10:05:48.620Z,98861.50
2022-11-24T10:09:03.190Z,98837.41
2022-11-24T10:12:23.527Z,98864.94
2022-11-24T10:15:19.223Z,98867.50
2022-11-24T10:18:31.856Z,98871.00
2022-11-24T10:21:50.808Z,98867.50
2022-11-24T10:25:01.584Z,98869.25
2022-11-24T10:27:55.984Z,98834.81
2022-11-24T10:30:42.999Z,98847.69
2022-11-24T10:33:31.008Z,98841.69
2022-11-24T10:36:31.658Z,98839.97
2022-11-24T10:39:37.240Z,98864.06
2022-11-24T10:42:29.662Z,98866.59
2022-11-24T10:45:19.328Z,98865.78
2022-11-24T10:48:27.208Z,98863.16
2022-11-24T10:51:50.980Z,98846.75
2022-11-24T10:54:57.334Z,98842.41
2022-11-24T10:57:45.171Z,98864.72
2022-11-24T11:00:34.101Z,98866.47
2022-11-24T11:03:37.995Z,98844.16
2022-11-24T11:06:29.490Z,98844.09
2022-11-24T11:09:22.842Z,98863.09
2022-11-24T11:12:47.900Z,98866.53
2022-11-24T11:15:34.177Z,98846.75
2022-11-24T11:18:21.694Z,98856.22
2022-11-24T11:21:24.028Z,98840.72
2022-11-24T11:24:16.804Z,98867.38
2022-11-24T11:27:16.217Z,98861.31
2022-11-24T11:36:43.350Z,98863.66
2022-11-24T11:39:34.854Z,98863.53
2022-11-24T11:45:45.420Z,98866.31
2022-11-24T11:48:42.843Z,98864.72
2022-11-24T11:52:04.908Z,98869.03
2022-11-24T11:55:14.525Z,98869.00
2022-11-24T11:58:26.882Z,98848.31
2022-11-24T12:01:31.985Z,98864.56
2022-11-24T12:04:40.180Z,98866.31
2022-11-24T12:07:51.151Z,98861.16
2022-11-24T12:10:46.077Z,98861.16
2022-11-24T12:13:53.685Z,98869.66
2022-11-24T12:16:55.801Z,98879.91
2022-11-24T12:20:09.021Z,98867.69
2022-11-24T12:23:11.085Z,98883.13
2022-11-24T12:26:07.101Z,98891.75
2022-11-24T12:29:27.878Z,98890.13
2022-11-24T12:32:47.231Z,98895.28
2022-11-24T12:35:45.685Z,98903.09
2022-11-24T12:39:01.448Z,98866.25
2022-11-24T12:42:05.255Z,98870.75
2022-11-24T12:45:03.524Z,98896.63
2022-11-24T12:48:08.307Z,98910.41
2022-11-24T12:50:57.647Z,98873.38
2022-11-24T12:53:46.456Z,98898.31
2022-11-24T12:57:01.342Z,98898.31
2022-11-24T12:59:56.427Z,98898.38
2022-11-24T13:03:00.577Z,98896.69
2022-11-24T13:06:01.132Z,98904.44
2022-11-24T13:08:47.885Z,98868.28
2022-11-24T13:12:14.357Z,98902.72
2022-11-24T13:15:00.921Z,98880.31
2022-11-24T13:18:05.188Z,98878.53
2022-11-24T13:20:53.726Z,98878.50
2022-11-24T13:23:40.293Z,98885.38
2022-11-24T13:26:30.186Z,98887.06
2022-11-24T13:29:51.959Z,98917.03
2022-11-24T13:32:38.484Z,98909.25
2022-11-24T13:35:24.940Z,98880.78
2022-11-24T13:38:45.693Z,98908.34
2022-11-24T13:41:32.382Z,98911.84
2022-11-24T13:44:24.900Z,98910.16
2022-11-24T13:47:37.162Z,98904.06
2022-11-24T13:50:45.293Z,98907.50
2022-11-24T13:53:41.042Z,98910.13
2022-11-24T13:56:30.405Z,98884.44
2022-11-24T13:59:27.629Z,98907.72
2022-11-24T14:02:23.244Z,98900.09
2022-11-24T14:05:14.633Z,98894.91
2022-11-24T14:08:01.794Z,98846.78
2022-11-24T14:10:48.606Z,98870.88
2022-11-24T14:13:35.060Z,98883.78
2022-11-24T14:16:23.274Z,98902.75
2022-11-24T14:19:10.800Z,98862.31
2022-11-24T14:21:57.379Z,98905.34
2022-11-24T14:24:47.069Z,98870.94
2022-11-24T14:27:39.016Z,98893.38
2022-11-24T14:30:25.622Z,98897.66
2022-11-24T14:33:15.921Z,98892.50
2022-11-24T14:36:02.201Z,98915.75
2022-11-24T14:38:48.415Z,98909.75
2022-11-24T14:41:34.722Z,98885.63
2022-11-24T14:44:26.764Z,98884.75
2022-11-24T14:47:24.568Z,98846.84
2022-11-24T14:50:19.606Z,98877.00
2022-11-24T14:53:14.020Z,98908.84
2022-11-24T14:56:08.529Z,98906.22
2022-11-24T14:58:56.937Z,98931.16
2022-11-24T15:01:43.434Z,98909.63
2022-11-24T15:04:54.779Z,98939.81
2022-11-24T15:07:41.055Z,98918.25
2022-11-24T15:10:33.879Z,98945.84
2022-11-24T15:13:24.015Z,98920.84
2022-11-24T15:16:19.911Z,98937.19
2022-11-24T15:19:15.941Z,98928.47
2022-11-24T15:22:34.367Z,98946.59
2022-11-24T15:25:33.491Z,98937.00
2022-11-24T15:28:25.539Z,98935.06
2022-11-24T15:31:13.975Z,98950.28
2022-11-24T15:34:00.264Z,98926.72
2022-11-24T15:36:46.488Z,98957.44
2022-11-24T15:39:32.717Z,98968.41
2022-11-24T15:42:18.958Z,98952.56
2022-11-24T15:45:05.595Z,98957.47
2022-11-24T15:47:52.123Z,98962.44
2022-11-24T15:50:39.061Z,98939.91
2022-11-24T15:53:36.006Z,98961.97
2022-11-24T15:56:33.603Z,98972.06
2022-11-24T15:59:21.283Z,98959.69
2022-11-24T16:02:09.197Z,98981.06
2022-11-24T16:04:55.816Z,98976.69
2022-11-24T16:07:42.377Z,98953.50
2022-11-24T16:10:31.792Z,98948.84
2022-11-24T16:13:18.149Z,98978.25
2022-11-24T16:16:04.538Z,98969.31
2022-11-24T16:18:50.791Z,98979.56
2022-11-24T16:21:37.188Z,98973.38
2022-11-24T16:24:23.531Z,98987.22
2022-11-24T16:27:09.696Z,98982.66
2022-11-24T16:29:56.045Z,98993.50
2022-11-24T16:32:42.343Z,98967.25
2022-11-24T16:35:28.658Z,98971.38
2022-11-24T16:38:17.228Z,98979.00
2022-11-24T16:41:03.400Z,98976.28
2022-11-24T16:43:49.683Z,98988.25
2022-11-24T16:46:36.014Z,98973.00
2022-11-24T16:49:22.096Z,98968.84
2022-11-24T16:52:08.520Z,98972.41
2022-11-24T16:54:54.803Z,98965.97
2022-11-24T16:57:41.089Z,98993.84
2022-11-24T17:00:27.516Z,98962.06
2022-11-24T17:03:13.869Z,98970.25
2022-11-24T17:06:00.759Z,99007.97
2022-11-24T17:08:48.187Z,99011.22
2022-11-24T17:11:35.093Z,99008.47
2022-11-24T17:14:21.300Z,98986.56
2022-11-24T17:17:07.646Z,98988.09
2022-11-24T17:19:53.761Z,99001.16
2022-11-24T17:22:39.946Z,98978.78
2022-11-24T17:25:26.095Z,98992.41
2022-11-24T17:28:12.343Z,98997.97
2022-11-24T17:30:58.520Z,99002.09
2022-11-24T17:33:44.906Z,98983.66
2022-11-24T17:36:33.160Z,99002.59
2022-11-24T17:39:24.509Z,98999.16
2022-11-24T17:42:11.352Z,99006.66
2022-11-24T17:44:57.735Z,99008.38
2022-11-24T17:47:44.157Z,98992.59
2022-11-24T17:50:30.421Z,98970.84
2022-11-24T17:53:16.797Z,98974.91
2022-11-24T17:56:04.192Z,99006.13
2022-11-24T17:58:55.560Z,98999.69
2022-11-24T18:01:42.049Z,99021.91
2022-11-24T18:04:28.668Z,99020.00
2022-11-24T18:07:15.067Z,99011.97
2022-11-24T18:10:01.447Z,99030.38
2022-11-24T18:12:47.849Z,99024.84
2022-11-24T18:15:35.097Z,99024.91
2022-11-24T18:18:21.357Z,99007.25
2022-11-24T18:21:13.594Z,99006.63
2022-11-24T18:23:59.996Z,99018.78
2022-11-24T18:26:46.709Z,99011.59
2022-11-24T18:29:32.973Z,99009.34
2022-11-24T18:32:19.673Z,99025.13
2022-11-24T18:35:06.449Z,99016.94
2022-11-24T18:37:53.425Z,98983.75
2022-11-24T18:40:40.482Z,99015.97
2022-11-24T18:43:28.776Z,99000.22
2022-11-24T18:46:17.360Z,99015.38
2022-11-24T18:49:04.398Z,99004.78
2022-11-24T18:51:50.898Z,98970.91
2022-11-24T18:54:37.326Z,99000.34
2022-11-24T18:57:24.083Z,98985.09
2022-11-24T19:00:11.244Z,99001.91
2022-11-24T19:02:59.389Z,99006.06
2022-11-24T19:05:46.105Z,98984.00
2022-11-24T19:08:33.625Z,98999.69
2022-11-24T19:11:26.180Z,98998.13
2022-11-24T19:14:15.639Z,99007.97
2022-11-24T19:17:03.664Z,99014.72
2022-11-24T19:19:51.527Z,98957.25
2022-11-24T19:22:37.807Z,99012.13
2022-11-24T19:25:24.063Z,99005.69
2022-11-24T19:28:12.597Z,98958.50
2022-11-24T19:31:04.786Z,98955.94
2022-11-24T19:33:52.843Z,98972.25
2022-11-24T19:36:40.581Z,98975.50
2022-11-24T19:39:26.795Z,98987.97
2022-11-24T19:42:13.253Z,98998.06
2022-11-24T19:44:59.721Z,98965.31
2022-11-24T19:47:45.878Z,98966.13
2022-11-24T19:50:32.297Z,98971.47
2022-11-24T19:53:18.632Z,98986.56
2022-11-24T19:56:09.529Z,99001.16
2022-11-24T19:58:56.674Z,98985.16
2022-11-24T20:01:43.037Z,98980.66
2022-11-24T20:04:29.938Z,98972.78
2022-11-24T20:07:16.754Z,98972.13
2022-11-24T20:10:07.783Z,98937.09
2022-11-24T20:12:54.506Z,98970.41
2022-11-24T20:15:40.795Z,98968.00
2022-11-24T20:18:27.400Z,99001.75
2022-11-24T20:21:16.825Z,99009.16
2022-11-24T20:24:18.089Z,99002.97
2022-11-24T20:27:04.517Z,99003.94
2022-11-24T20:29:50.724Z,98986.44
2022-11-24T20:32:37.160Z,98991.34
2022-11-24T20:35:23.273Z,99006.91
2022-11-24T20:38:09.616Z,98970.44
2022-11-24T20:41:09.425Z,98976.34
2022-11-24T20:44:00.062Z,98999.09
2022-11-24T20:46:47.579Z,98987.66
2022-11-24T20:49:34.272Z,99005.72
2022-11-24T20:52:20.519Z,98939.81
2022-11-24T20:55:07.932Z,98988.97
2022-11-24T20:57:54.147Z,98989.44
2022-11-24T21:00:40.706Z,98982.81
2022-11-24T21:03:27.223Z,98970.97
2022-11-24T21:06:14.792Z,99012.44
2022-11-24T21:09:03.978Z,98990.91
2022-11-24T21:11:50.985Z,98977.97
2022-11-24T21:14:37.552Z,98993.00
2022-11-24T21:17:24.098Z,98998.06
2022-11-24T21:20:10.587Z,98949.09
2022-11-24T21:22:58.168Z,98983.88
2022-11-24T21:25:44.277Z,98944.31
2022-11-24T21:28:31.072Z,98987.31
2022-11-24T21:31:20.122Z,99006.03
2022-11-24T21:34:07.727Z,98995.59
2022-11-24T21:36:54.162Z,98990.41
2022-11-24T21:39:44.455Z,99002.47
2022-11-24T21:42:30.782Z,98970.88
2022-11-24T21:45:17.233Z,98974.03
2022-11-24T21:48:03.714Z,99006.38
2022-11-24T21:50:50.105Z,98958.41
2022-11-24T21:53:38.472Z,98993.91
2022-11-24T21:56:24.867Z,98972.50
2022-11-24T21:59:11.587Z,98998.00
2022-11-24T22:01:58.460Z,99007.22
2022-11-24T22:04:45.377Z,98935.19
2022-11-24T22:07:32.586Z,98965.22
2022-11-24T22:10:19.211Z,98982.44
2022-11-24T22:13:05.740Z,99000.28
2022-11-24T22:16:03.669Z,98999.84
2022-11-24T22:18:50.609Z,98987.69
2022-11-24T22:21:36.990Z,99009.63
2022-11-24T22:24:27.213Z,98971.41
2022-11-24T22:27:13.793Z,98954.88
2022-11-24T22:30:00.279Z,98992.28
2022-11-24T22:32:46.515Z,99007.38
2022-11-24T22:35:33.151Z,99013.41
2022-11-24T22:38:19.610Z,99013.53
2022-11-24T22:41:11.664Z,99015.66
2022-11-24T22:43:58.127Z,99017.44
2022-11-24T22:46:44.351Z,99004.72
2022-11-24T22:49:30.591Z,98992.06
2022-11-24T22:52:16.914Z,99001.00
2022-11-24T22:55:03.447Z,99003.56
2022-11-24T22:57:52.207Z,99007.78
2022-11-24T23:00:39.635Z,99007.91
2022-11-24T23:03:26.156Z,98992.34
2022-11-24T23:06:16.696Z,99012.75
2022-11-24T23:09:04.482Z,98989.56
2022-11-24T23:11:50.971Z,98989.44
2022-11-24T23:14:37.354Z,99013.16
2022-11-24T23:17:24.255Z,99011.59
2022-11-24T23:20:11.417Z,98989.66
2022-11-24T23:22:58.297Z,99018.69
2022-11-24T23:25:44.611Z,98989.69
2022-11-24T23:28:31.053Z,98983.19
2022-11-24T23:31:20.746Z,99014.44
2022-11-24T23:34:07.541Z,99012.47
2022-11-24T23:36:53.780Z,98998.81
2022-11-24T23:39:40.066Z,98984.78
2022-11-24T23:42:26.542Z,99004.53
2022-11-24T23:45:12.688Z,99017.66
2022-11-24T23:47:58.923Z,99019.66
2022-11-24T23:50:45.150Z,98967.09
2022-11-24T23:53:33.133Z,98972.88
2022-11-24T23:56:31.488Z,99021.53
2022-11-24T23:59:18.896Z,99007.84
